sensor_id;sensor_type;location;lat;lon;timestamp;pressure;altitude;pressure_sealevel;temperature;humidity
76011;BME280;64701;43.536;1.478;2023-07-08T00:01:22;99376.66;;;19.77;92.20
76011;BME280;64701;43.536;1.478;2023-07-08T00:03:47;99372.88;;;19.78;90.72
76011;BME280;64701;43.536;1.478;2023-07-08T00:06:14;99370.50;;;19.82;90.65
76011;BME280;64701;43.536;1.478;2023-07-08T00:08:41;99372.38;;;19.81;91.94
76011;BME280;64701;43.536;1.478;2023-07-08T00:11:10;99353.81;;;19.80;91.83
76011;BME280;64701;43.536;1.478;2023-07-08T00:13:36;99356.50;;;19.80;91.25
76011;BME280;64701;43.536;1.478;2023-07-08T00:16:01;99351.69;;;19.82;90.12
76011;BME280;64701;43.536;1.478;2023-07-08T00:18:26;99357.06;;;19.82;90.89
76011;BME280;64701;43.536;1.478;2023-07-08T00:20:52;99358.38;;;19.79;91.44
76011;BME280;64701;43.536;1.478;2023-07-08T00:23:17;99360.47;;;19.72;93.03
76011;BME280;64701;43.536;1.478;2023-07-08T00:25:47;99346.13;;;19.62;94.92
76011;BME280;64701;43.536;1.478;2023-07-08T00:28:17;99342.13;;;19.64;93.32
76011;BME280;64701;43.536;1.478;2023-07-08T00:30:42;99339.06;;;19.50;96.31
76011;BME280;64701;43.536;1.478;2023-07-08T00:33:08;99325.88;;;19.49;96.22
76011;BME280;64701;43.536;1.478;2023-07-08T00:35:34;99320.81;;;19.52;94.93
76011;BME280;64701;43.536;1.478;2023-07-08T00:38:00;99323.63;;;19.41;98.15
76011;BME280;64701;43.536;1.478;2023-07-08T00:40:38;99320.38;;;19.39;98.31
76011;BME280;64701;43.536;1.478;2023-07-08T00:43:03;99320.94;;;19.41;97.75
76011;BME280;64701;43.536;1.478;2023-07-08T00:45:44;99308.34;;;19.41;98.58
76011;BME280;64701;43.536;1.478;2023-07-08T00:48:15;99304.03;;;19.40;98.31
76011;BME280;64701;43.536;1.478;2023-07-08T00:50:41;99303.16;;;19.35;100.00
76011;BME280;64701;43.536;1.478;2023-07-08T00:55:55;99309.31;;;19.30;100.00
76011;BME280;64701;43.536;1.478;2023-07-08T00:58:21;99300.16;;;19.31;100.00
76011;BME280;64701;43.536;1.478;2023-07-08T01:00:49;99291.00;;;19.27;100.00
76011;BME280;64701;43.536;1.478;2023-07-08T01:03:15;99289.13;;;19.28;100.00
76011;BME280;64701;43.536;1.478;2023-07-08T01:05:40;99284.81;;;19.27;100.00
76011;BME280;64701;43.536;1.478;2023-07-08T01:08:08;99291.72;;;19.17;100.00
76011;BME280;64701;43.536;1.478;2023-07-08T01:10:39;99284.47;;;19.18;100.00
76011;BME280;64701;43.536;1.478;2023-07-08T01:13:07;99288.56;;;19.26;100.00
76011;BME280;64701;43.536;1.478;2023-07-08T01:15:37;99291.75;;;19.23;100.00
76011;BME280;64701;43.536;1.478;2023-07-08T01:18:04;99289.56;;;19.20;100.00
76011;BME280;64701;43.536;1.478;2023-07-08T01:20:29;99283.47;;;19.24;100.00
76011;BME280;64701;43.536;1.478;2023-07-08T01:22:55;99285.13;;;19.30;100.00
76011;BME280;64701;43.536;1.478;2023-07-08T01:25:20;99278.44;;;19.33;100.00
76011;BME280;64701;43.536;1.478;2023-07-08T01:27:47;99280.88;;;19.34;100.00
76011;BME280;64701;43.536;1.478;2023-07-08T01:30:13;99278.06;;;19.46;99.99
76011;BME280;64701;43.536;1.478;2023-07-08T01:32:39;99278.06;;;19.46;100.00
76011;BME280;64701;43.536;1.478;2023-07-08T01:35:08;99274.31;;;19.47;100.00
76011;BME280;64701;43.536;1.478;2023-07-08T01:37:42;99282.00;;;19.43;100.00
76011;BME280;64701;43.536;1.478;2023-07-08T01:42:42;99281.84;;;19.50;100.00
76011;BME280;64701;43.536;1.478;2023-07-08T01:45:11;99281.31;;;19.48;100.00
76011;BME280;64701;43.536;1.478;2023-07-08T01:47:37;99288.59;;;19.52;100.00
76011;BME280;64701;43.536;1.478;2023-07-08T01:50:03;99272.75;;;19.56;100.00
76011;BME280;64701;43.536;1.478;2023-07-08T01:52:28;99271.13;;;19.55;100.00
76011;BME280;64701;43.536;1.478;2023-07-08T01:54:54;99273.31;;;19.58;100.00
76011;BME280;64701;43.536;1.478;2023-07-08T01:57:20;99268.50;;;19.60;99.76
76011;BME280;64701;43.536;1.478;2023-07-08T01:59:45;99270.13;;;19.61;99.90
76011;BME280;64701;43.536;1.478;2023-07-08T02:02:10;99264.94;;;19.54;100.00
76011;BME280;64701;43.536;1.478;2023-07-08T02:04:36;99265.50;;;19.56;100.00
76011;BME280;64701;43.536;1.478;2023-07-08T02:07:01;99269.56;;;19.59;100.00
76011;BME280;64701;43.536;1.478;2023-07-08T02:09:27;99271.44;;;19.59;100.00
76011;BME280;64701;43.536;1.478;2023-07-08T02:11:53;99263.19;;;19.65;99.62
76011;BME280;64701;43.536;1.478;2023-07-08T02:14:18;99267.22;;;19.68;100.00
76011;BME280;64701;43.536;1.478;2023-07-08T02:16:44;99269.09;;;19.67;100.00
76011;BME280;64701;43.536;1.478;2023-07-08T02:19:10;99280.97;;;19.71;100.00
76011;BME280;64701;43.536;1.478;2023-07-08T02:21:35;99273.75;;;19.77;100.00
76011;BME280;64701;43.536;1.478;2023-07-08T02:24:00;99273.47;;;19.78;100.00
76011;BME280;64701;43.536;1.478;2023-07-08T02:26:26;99275.13;;;19.84;100.00
76011;BME280;64701;43.536;1.478;2023-07-08T02:28:51;99282.13;;;19.85;100.00
76011;BME280;64701;43.536;1.478;2023-07-08T02:31:17;99278.38;;;19.86;100.00
76011;BME280;64701;43.536;1.478;2023-07-08T02:33:42;99273.34;;;19.95;99.33
76011;BME280;64701;43.536;1.478;2023-07-08T02:36:07;99282.75;;;19.97;99.56
76011;BME280;64701;43.536;1.478;2023-07-08T02:38:32;99271.75;;;19.99;99.19
76011;BME280;64701;43.536;1.478;2023-07-08T02:40:58;99277.72;;;20.06;98.65
76011;BME280;64701;43.536;1.478;2023-07-08T02:43:23;99276.34;;;20.04;99.00
76011;BME280;64701;43.536;1.478;2023-07-08T02:45:49;99279.03;;;20.04;98.90
76011;BME280;64701;43.536;1.478;2023-07-08T02:48:14;99269.41;;;20.08;98.53
76011;BME280;64701;43.536;1.478;2023-07-08T02:50:39;99269.41;;;20.08;98.66
76011;BME280;64701;43.536;1.478;2023-07-08T02:53:08;99258.06;;;20.01;99.52
76011;BME280;64701;43.536;1.478;2023-07-08T02:55:38;99280.63;;;20.00;99.71
76011;BME280;64701;43.536;1.478;2023-07-08T02:58:03;99273.66;;;20.04;99.57
76011;BME280;64701;43.536;1.478;2023-07-08T03:00:29;99268.25;;;19.98;99.57
76011;BME280;64701;43.536;1.478;2023-07-08T03:02:54;99273.44;;;20.10;98.82
76011;BME280;64701;43.536;1.478;2023-07-08T03:05:19;99268.91;;;20.21;97.65
76011;BME280;64701;43.536;1.478;2023-07-08T03:07:45;99264.56;;;20.10;98.75
76011;BME280;64701;43.536;1.478;2023-07-08T03:10:12;99258.94;;;20.16;98.05
76011;BME280;64701;43.536;1.478;2023-07-08T03:12:37;99267.31;;;20.20;97.50
76011;BME280;64701;43.536;1.478;2023-07-08T03:15:03;99271.09;;;20.24;97.12
76011;BME280;64701;43.536;1.478;2023-07-08T03:17:28;99267.38;;;20.30;96.71
76011;BME280;64701;43.536;1.478;2023-07-08T03:19:53;99271.09;;;20.24;96.88
76011;BME280;64701;43.536;1.478;2023-07-08T03:22:19;99264.13;;;20.28;96.13
76011;BME280;64701;43.536;1.478;2023-07-08T03:24:44;99265.78;;;20.34;95.41
76011;BME280;64701;43.536;1.478;2023-07-08T03:27:15;99270.09;;;20.35;95.90
76011;BME280;64701;43.536;1.478;2023-07-08T03:29:41;99270.31;;;20.28;95.89
76011;BME280;64701;43.536;1.478;2023-07-08T03:32:07;99264.66;;;20.25;95.69
76011;BME280;64701;43.536;1.478;2023-07-08T03:34:34;99271.38;;;20.27;95.04
76011;BME280;64701;43.536;1.478;2023-07-08T03:36:59;99263.63;;;20.31;95.04
76011;BME280;64701;43.536;1.478;2023-07-08T03:39:25;99264.13;;;20.28;94.62
76011;BME280;64701;43.536;1.478;2023-07-08T03:41:50;99269.00;;;20.31;94.58
76011;BME280;64701;43.536;1.478;2023-07-08T03:44:16;99268.50;;;20.34;94.40
76011;BME280;64701;43.536;1.478;2023-07-08T03:46:42;99264.72;;;20.35;94.14
76011;BME280;64701;43.536;1.478;2023-07-08T03:49:08;99266.94;;;20.43;93.91
76011;BME280;64701;43.536;1.478;2023-07-08T03:51:34;99260.44;;;20.39;93.93
76011;BME280;64701;43.536;1.478;2023-07-08T03:54:00;99266.38;;;20.41;93.88
76011;BME280;64701;43.536;1.478;2023-07-08T03:56:26;99278.78;;;20.47;93.24
76011;BME280;64701;43.536;1.478;2023-07-08T03:58:51;99272.31;;;20.43;92.95
76011;BME280;64701;43.536;1.478;2023-07-08T04:01:17;99278.75;;;20.42;92.04
76011;BME280;64701;43.536;1.478;2023-07-08T04:03:43;99285.47;;;20.45;91.73
76011;BME280;64701;43.536;1.478;2023-07-08T04:06:08;99284.72;;;20.54;92.18
76011;BME280;64701;43.536;1.478;2023-07-08T04:08:34;99288.75;;;20.57;91.64
76011;BME280;64701;43.536;1.478;2023-07-08T04:10:59;99293.09;;;20.63;91.27
76011;BME280;64701;43.536;1.478;2023-07-08T04:13:24;99294.47;;;20.65;91.28
76011;BME280;64701;43.536;1.478;2023-07-08T04:15:51;99290.41;;;20.63;91.06
76011;BME280;64701;43.536;1.478;2023-07-08T04:18:19;99285.59;;;20.70;90.73
76011;BME280;64701;43.536;1.478;2023-07-08T04:20:44;99293.91;;;20.63;91.01
76011;BME280;64701;43.536;1.478;2023-07-08T04:23:09;99290.72;;;20.66;91.33
76011;BME280;64701;43.536;1.478;2023-07-08T04:25:34;99297.66;;;20.62;91.01
76011;BME280;64701;43.536;1.478;2023-07-08T04:28:00;99302.53;;;20.65;91.17
76011;BME280;64701;43.536;1.478;2023-07-08T04:30:25;99296.09;;;20.71;91.17
76011;BME280;64701;43.536;1.478;2023-07-08T04:32:51;99297.72;;;20.72;91.17
76011;BME280;64701;43.536;1.478;2023-07-08T04:35:16;99305.00;;;20.77;91.35
76011;BME280;64701;43.536;1.478;2023-07-08T04:37:41;99306.31;;;20.74;91.62
76011;BME280;64701;43.536;1.478;2023-07-08T04:40:11;99314.16;;;20.76;92.12
76011;BME280;64701;43.536;1.478;2023-07-08T04:42:39;99323.59;;;20.78;92.52
76011;BME280;64701;43.536;1.478;2023-07-08T04:45:04;99329.00;;;20.84;92.33
76011;BME280;64701;43.536;1.478;2023-07-08T04:47:31;99332.19;;;20.86;92.45
76011;BME280;64701;43.536;1.478;2023-07-08T04:49:59;99320.34;;;20.76;93.62
76011;BME280;64701;43.536;1.478;2023-07-08T04:52:24;99325.50;;;20.88;93.04
76011;BME280;64701;43.536;1.478;2023-07-08T04:54:49;99325.78;;;20.92;93.15
76011;BME280;64701;43.536;1.478;2023-07-08T04:57:14;99323.06;;;20.92;93.40
76011;BME280;64701;43.536;1.478;2023-07-08T04:59:41;99317.16;;;20.90;93.98
76011;BME280;64701;43.536;1.478;2023-07-08T05:02:06;99323.06;;;20.92;93.92
76011;BME280;64701;43.536;1.478;2023-07-08T05:04:33;99329.00;;;20.89;94.11
76011;BME280;64701;43.536;1.478;2023-07-08T05:06:58;99312.84;;;20.89;94.33
76011;BME280;64701;43.536;1.478;2023-07-08T05:09:23;99319.03;;;20.89;94.47
76011;BME280;64701;43.536;1.478;2023-07-08T05:11:51;99332.25;;;20.91;94.76
76011;BME280;64701;43.536;1.478;2023-07-08T05:14:16;99332.25;;;20.96;94.49
76011;BME280;64701;43.536;1.478;2023-07-08T05:16:41;99344.09;;;20.90;95.42
76011;BME280;64701;43.536;1.478;2023-07-08T05:19:07;99348.41;;;20.96;94.97
76011;BME280;64701;43.536;1.478;2023-07-08T05:21:32;99346.78;;;20.95;95.05
76011;BME280;64701;43.536;1.478;2023-07-08T05:24:01;99352.94;;;20.85;96.42
76011;BME280;64701;43.536;1.478;2023-07-08T05:26:27;99370.97;;;20.85;97.15
76011;BME280;64701;43.536;1.478;2023-07-08T05:28:52;99360.50;;;20.88;96.88
76011;BME280;64701;43.536;1.478;2023-07-08T05:31:17;99353.25;;;20.94;96.40
76011;BME280;64701;43.536;1.478;2023-07-08T05:33:42;99357.00;;;20.93;97.10
76011;BME280;64701;43.536;1.478;2023-07-08T05:36:08;99350.81;;;20.92;97.32
76011;BME280;64701;43.536;1.478;2023-07-08T05:38:33;99355.69;;;21.00;97.41
76011;BME280;64701;43.536;1.478;2023-07-08T05:40:58;99357.81;;;20.93;97.88
76011;BME280;64701;43.536;1.478;2023-07-08T05:43:24;99347.34;;;20.97;98.29
76011;BME280;64701;43.536;1.478;2023-07-08T05:45:49;99355.44;;;20.97;98.47
76011;BME280;64701;43.536;1.478;2023-07-08T05:48:14;99352.75;;;21.07;98.45
76011;BME280;64701;43.536;1.478;2023-07-08T05:50:40;99351.72;;;21.13;97.66
76011;BME280;64701;43.536;1.478;2023-07-08T05:53:05;99358.47;;;21.15;97.98
76011;BME280;64701;43.536;1.478;2023-07-08T05:55:31;99357.59;;;21.10;98.45
76011;BME280;64701;43.536;1.478;2023-07-08T05:57:59;99352.00;;;21.16;98.66
76011;BME280;64701;43.536;1.478;2023-07-08T06:00:24;99345.84;;;21.26;98.06
76011;BME280;64701;43.536;1.478;2023-07-08T06:02:50;99341.56;;;21.35;97.70
76011;BME280;64701;43.536;1.478;2023-07-08T06:05:15;99338.34;;;21.43;96.83
76011;BME280;64701;43.536;1.478;2023-07-08T06:07:41;99342.66;;;21.44;97.33
76011;BME280;64701;43.536;1.478;2023-07-08T06:10:06;99350.47;;;21.46;97.73
76011;BME280;64701;43.536;1.478;2023-07-08T06:12:32;99356.16;;;21.49;97.37
76011;BME280;64701;43.536;1.478;2023-07-08T06:14:57;99354.53;;;21.58;97.35
76011;BME280;64701;43.536;1.478;2023-07-08T06:17:22;99366.41;;;21.63;97.40
76011;BME280;64701;43.536;1.478;2023-07-08T06:19:48;99357.78;;;21.71;97.05
76011;BME280;64701;43.536;1.478;2023-07-08T06:22:13;99372.06;;;21.76;97.06
76011;BME280;64701;43.536;1.478;2023-07-08T06:24:38;99375.56;;;21.87;96.34
76011;BME280;64701;43.536;1.478;2023-07-08T06:27:04;99377.19;;;21.93;96.44
76011;BME280;64701;43.536;1.478;2023-07-08T06:29:29;99377.78;;;21.95;95.74
76011;BME280;64701;43.536;1.478;2023-07-08T06:31:54;99382.63;;;22.03;95.54
76011;BME280;64701;43.536;1.478;2023-07-08T06:34:20;99382.38;;;22.10;94.92
76011;BME280;64701;43.536;1.478;2023-07-08T06:36:48;99391.81;;;22.07;94.77
76011;BME280;64701;43.536;1.478;2023-07-08T06:39:14;99393.16;;;22.10;94.68
76011;BME280;64701;43.536;1.478;2023-07-08T06:41:39;99403.69;;;22.16;94.17
76011;BME280;64701;43.536;1.478;2023-07-08T06:44:04;99399.34;;;22.20;94.30
76011;BME280;64701;43.536;1.478;2023-07-08T06:46:29;99404.19;;;22.23;94.36
76011;BME280;64701;43.536;1.478;2023-07-08T06:48:55;99393.69;;;22.27;93.64
76011;BME280;64701;43.536;1.478;2023-07-08T06:51:20;99399.34;;;22.30;93.94
76011;BME280;64701;43.536;1.478;2023-07-08T06:53:46;99403.66;;;22.36;93.12
76011;BME280;64701;43.536;1.478;2023-07-08T06:56:11;99403.38;;;22.43;93.27
76011;BME280;64701;43.536;1.478;2023-07-08T06:58:36;99406.88;;;22.54;92.18
76011;BME280;64701;43.536;1.478;2023-07-08T07:01:02;99412.78;;;22.66;92.10
76011;BME280;64701;43.536;1.478;2023-07-08T07:03:27;99412.00;;;22.75;91.68
76011;BME280;64701;43.536;1.478;2023-07-08T07:05:52;99417.09;;;22.82;90.68
76011;BME280;64701;43.536;1.478;2023-07-08T07:08:18;99413.84;;;22.90;90.39
76011;BME280;64701;43.536;1.478;2023-07-08T07:10:43;99425.41;;;23.01;90.52
76011;BME280;64701;43.536;1.478;2023-07-08T07:13:08;99414.31;;;23.07;90.20
76011;BME280;64701;43.536;1.478;2023-07-08T07:15:34;99414.03;;;23.14;89.52
76011;BME280;64701;43.536;1.478;2023-07-08T07:17:59;99421.84;;;23.15;88.93
76011;BME280;64701;43.536;1.478;2023-07-08T07:20:24;99425.09;;;23.17;88.49
76011;BME280;64701;43.536;1.478;2023-07-08T07:22:50;99422.38;;;23.23;89.33
76011;BME280;64701;43.536;1.478;2023-07-08T07:25:16;99418.03;;;23.27;88.85
76011;BME280;64701;43.536;1.478;2023-07-08T07:27:42;99419.06;;;23.31;88.26
76011;BME280;64701;43.536;1.478;2023-07-08T07:30:07;99419.88;;;23.36;88.39
76011;BME280;64701;43.536;1.478;2023-07-08T07:32:34;99428.78;;;23.37;88.57
76011;BME280;64701;43.536;1.478;2023-07-08T07:35:00;99424.47;;;23.41;88.10
76011;BME280;64701;43.536;1.478;2023-07-08T07:37:25;99430.91;;;23.50;87.49
76011;BME280;64701;43.536;1.478;2023-07-08T07:39:50;99445.25;;;23.50;86.70
76011;BME280;64701;43.536;1.478;2023-07-08T07:42:16;99443.28;;;23.61;86.54
76011;BME280;64701;43.536;1.478;2023-07-08T07:44:42;99446.97;;;23.80;86.12
76011;BME280;64701;43.536;1.478;2023-07-08T07:47:08;99449.06;;;23.93;85.80
76011;BME280;64701;43.536;1.478;2023-07-08T07:49:33;99442.97;;;24.12;84.36
76011;BME280;64701;43.536;1.478;2023-07-08T07:51:58;99454.00;;;24.20;83.13
76011;BME280;64701;43.536;1.478;2023-07-08T07:54:24;99449.13;;;24.22;82.85
76011;BME280;64701;43.536;1.478;2023-07-08T07:56:49;99453.25;;;24.10;82.38
76011;BME280;64701;43.536;1.478;2023-07-08T07:59:15;99456.44;;;24.22;82.52
76011;BME280;64701;43.536;1.478;2023-07-08T08:01:40;99450.44;;;24.30;82.45
76011;BME280;64701;43.536;1.478;2023-07-08T08:04:07;99452.56;;;24.33;81.84
76011;BME280;64701;43.536;1.478;2023-07-08T08:06:33;99451.53;;;24.29;82.09
76011;BME280;64701;43.536;1.478;2023-07-08T08:08:58;99446.50;;;24.46;81.70
76011;BME280;64701;43.536;1.478;2023-07-08T08:11:24;99448.34;;;24.51;81.34
76011;BME280;64701;43.536;1.478;2023-07-08T08:13:50;99446.34;;;24.61;81.37
76011;BME280;64701;43.536;1.478;2023-07-08T08:16:15;99438.75;;;24.63;80.88
76011;BME280;64701;43.536;1.478;2023-07-08T08:18:41;99435.00;;;24.59;80.05
76011;BME280;64701;43.536;1.478;2023-07-08T08:21:06;99432.31;;;24.59;79.75
76011;BME280;64701;43.536;1.478;2023-07-08T08:23:32;99445.13;;;24.49;79.84
76011;BME280;64701;43.536;1.478;2023-07-08T08:25:57;99428.59;;;24.50;80.84
76011;BME280;64701;43.536;1.478;2023-07-08T08:28:23;99434.59;;;24.47;79.26
76011;BME280;64701;43.536;1.478;2023-07-08T08:30:48;99439.94;;;24.52;79.89
76011;BME280;64701;43.536;1.478;2023-07-08T08:33:14;99448.34;;;24.51;79.26
76011;BME280;64701;43.536;1.478;2023-07-08T08:35:41;99442.13;;;24.50;80.00
76011;BME280;64701;43.536;1.478;2023-07-08T08:38:06;99443.94;;;24.60;79.62
76011;BME280;64701;43.536;1.478;2023-07-08T08:40:32;99439.56;;;24.64;79.02
76011;BME280;64701;43.536;1.478;2023-07-08T08:43:02;99445.69;;;24.74;80.22
76011;BME280;64701;43.536;1.478;2023-07-08T08:45:28;99452.34;;;24.87;79.02
76011;BME280;64701;43.536;1.478;2023-07-08T08:48:00;99448.22;;;24.95;79.08
76011;BME280;64701;43.536;1.478;2023-07-08T08:52:59;99463.44;;;25.14;77.17
76011;BME280;64701;43.536;1.478;2023-07-08T08:55:26;99464.69;;;25.22;77.42
76011;BME280;64701;43.536;1.478;2023-07-08T09:06:13;99450.16;;;25.60;76.88
76011;BME280;64701;43.536;1.478;2023-07-08T09:08:39;99444.59;;;25.71;77.08
76011;BME280;64701;43.536;1.478;2023-07-08T09:13:39;99451.47;;;25.82;77.70
76011;BME280;64701;43.536;1.478;2023-07-08T09:16:06;99465.56;;;25.84;75.91
76011;BME280;64701;43.536;1.478;2023-07-08T09:18:33;99462.56;;;25.85;76.15
76011;BME280;64701;43.536;1.478;2023-07-08T09:21:03;99465.66;;;25.97;76.27
76011;BME280;64701;43.536;1.478;2023-07-08T09:23:33;99469.75;;;25.95;74.60
76011;BME280;64701;43.536;1.478;2023-07-08T09:26:02;99464.31;;;25.95;72.94
76011;BME280;64701;43.536;1.478;2023-07-08T09:28:39;99468.03;;;25.99;72.90
76011;BME280;64701;43.536;1.478;2023-07-08T09:31:05;99478.81;;;26.04;72.70
76011;BME280;64701;43.536;1.478;2023-07-08T09:33:31;99481.03;;;26.02;72.34
76011;BME280;64701;43.536;1.478;2023-07-08T09:35:56;99497.16;;;26.12;72.27
76011;BME280;64701;43.536;1.478;2023-07-08T09:38:22;99492.63;;;26.08;71.69
76011;BME280;64701;43.536;1.478;2023-07-08T09:40:48;99494.84;;;26.24;73.09
76011;BME280;64701;43.536;1.478;2023-07-08T09:45:40;99505.41;;;26.45;73.05
76011;BME280;64701;43.536;1.478;2023-07-08T09:48:08;99493.13;;;26.47;71.82
76011;BME280;64701;43.536;1.478;2023-07-08T09:50:39;99506.75;;;26.61;72.39
76011;BME280;64701;43.536;1.478;2023-07-08T09:53:11;99504.75;;;26.66;71.79
76011;BME280;64701;43.536;1.478;2023-07-08T09:55:37;99506.56;;;26.71;71.71
76011;BME280;64701;43.536;1.478;2023-07-08T09:58:03;99516.25;;;26.77;70.40
76011;BME280;64701;43.536;1.478;2023-07-08T10:00:29;99505.22;;;26.87;70.78
76011;BME280;64701;43.536;1.478;2023-07-08T10:02:59;99515.41;;;26.95;69.86
76011;BME280;64701;43.536;1.478;2023-07-08T10:05:32;99505.16;;;26.92;70.11
76011;BME280;64701;43.536;1.478;2023-07-08T10:07:58;99507.69;;;27.02;69.78
76011;BME280;64701;43.536;1.478;2023-07-08T10:10:31;99502.56;;;27.14;70.62
76011;BME280;64701;43.536;1.478;2023-07-08T10:13:01;99497.44;;;27.27;69.61
76011;BME280;64701;43.536;1.478;2023-07-08T10:15:35;99505.88;;;27.39;70.27
76011;BME280;64701;43.536;1.478;2023-07-08T10:18:02;99502.47;;;27.47;68.20
76011;BME280;64701;43.536;1.478;2023-07-08T10:20:29;99502.59;;;27.55;68.74
76011;BME280;64701;43.536;1.478;2023-07-08T10:23:34;99503.38;;;27.56;68.32
76011;BME280;64701;43.536;1.478;2023-07-08T10:26:00;99505.47;;;27.73;68.47
76011;BME280;64701;43.536;1.478;2023-07-08T10:28:38;99503.84;;;27.85;68.50
76011;BME280;64701;43.536;1.478;2023-07-08T10:31:08;99503.00;;;27.98;68.88
76011;BME280;64701;43.536;1.478;2023-07-08T10:33:38;99499.97;;;28.14;68.25
76011;BME280;64701;43.536;1.478;2023-07-08T10:38:50;99494.47;;;28.27;65.97
76011;BME280;64701;43.536;1.478;2023-07-08T10:43:53;99494.66;;;28.31;65.21
76011;BME280;64701;43.536;1.478;2023-07-08T10:46:26;99494.16;;;28.29;64.49
76011;BME280;64701;43.536;1.478;2023-07-08T10:51:41;99510.56;;;28.37;63.72
76011;BME280;64701;43.536;1.478;2023-07-08T10:56:38;99502.84;;;28.53;64.94
76011;BME280;64701;43.536;1.478;2023-07-08T11:06:46;99524.22;;;28.82;61.48
76011;BME280;64701;43.536;1.478;2023-07-08T11:09:16;99529.03;;;28.85;60.96
76011;BME280;64701;43.536;1.478;2023-07-08T11:11:45;99517.69;;;28.92;62.20
76011;BME280;64701;43.536;1.478;2023-07-08T11:14:13;99511.47;;;29.00;61.61
76011;BME280;64701;43.536;1.478;2023-07-08T11:16:45;99504.13;;;29.09;61.34
76011;BME280;64701;43.536;1.478;2023-07-08T11:19:16;99506.09;;;29.17;59.83
76011;BME280;64701;43.536;1.478;2023-07-08T11:21:44;99501.47;;;29.26;59.70
76011;BME280;64701;43.536;1.478;2023-07-08T11:29:44;99501.63;;;29.60;59.48
76011;BME280;64701;43.536;1.478;2023-07-08T11:32:12;99508.84;;;29.74;60.34
76011;BME280;64701;43.536;1.478;2023-07-08T11:34:38;99506.63;;;29.76;58.87
76011;BME280;64701;43.536;1.478;2023-07-08T11:37:05;99504.53;;;29.81;57.66
76011;BME280;64701;43.536;1.478;2023-07-08T11:39:39;99505.84;;;29.84;56.01
76011;BME280;64701;43.536;1.478;2023-07-08T11:42:14;99509.41;;;29.93;56.20
76011;BME280;64701;43.536;1.478;2023-07-08T11:44:44;99510.53;;;29.92;57.91
76011;BME280;64701;43.536;1.478;2023-07-08T11:47:16;99508.94;;;29.91;57.13
76011;BME280;64701;43.536;1.478;2023-07-08T11:49:42;99499.78;;;30.04;58.19
76011;BME280;64701;43.536;1.478;2023-07-08T11:52:10;99501.56;;;30.17;57.73
76011;BME280;64701;43.536;1.478;2023-07-08T11:54:39;99501.88;;;30.24;55.96
76011;BME280;64701;43.536;1.478;2023-07-08T11:57:17;99493.19;;;30.31;55.59
76011;BME280;64701;43.536;1.478;2023-07-08T11:59:43;99488.69;;;30.35;56.61
76011;BME280;64701;43.536;1.478;2023-07-08T12:04:35;99492.41;;;30.56;56.15
76011;BME280;64701;43.536;1.478;2023-07-08T12:07:20;99481.59;;;30.60;54.85
76011;BME280;64701;43.536;1.478;2023-07-08T12:09:58;99481.59;;;30.60;55.09
76011;BME280;64701;43.536;1.478;2023-07-08T12:12:31;99481.75;;;30.72;54.42
76011;BME280;64701;43.536;1.478;2023-07-08T12:14:58;99473.59;;;30.55;53.65
76011;BME280;64701;43.536;1.478;2023-07-08T12:17:25;99473.41;;;30.68;54.30
76011;BME280;64701;43.536;1.478;2023-07-08T12:19:50;99473.53;;;30.80;54.47
76011;BME280;64701;43.536;1.478;2023-07-08T12:22:16;99479.09;;;30.93;51.65
76011;BME280;64701;43.536;1.478;2023-07-08T12:24:41;99478.59;;;30.99;53.71
76011;BME280;64701;43.536;1.478;2023-07-08T12:27:08;99480.19;;;31.00;52.65
76011;BME280;64701;43.536;1.478;2023-07-08T12:29:33;99481.47;;;31.11;51.77
76011;BME280;64701;43.536;1.478;2023-07-08T12:31:58;99482.00;;;30.96;50.47
76011;BME280;64701;43.536;1.478;2023-07-08T12:34:24;99490.81;;;31.10;53.09
76011;BME280;64701;43.536;1.478;2023-07-08T12:36:50;99471.69;;;31.10;51.88
76011;BME280;64701;43.536;1.478;2023-07-08T12:39:15;99479.34;;;31.17;50.89
76011;BME280;64701;43.536;1.478;2023-07-08T12:41:42;99467.28;;;31.18;50.27
76011;BME280;64701;43.536;1.478;2023-07-08T12:44:13;99469.97;;;31.27;50.48
76011;BME280;64701;43.536;1.478;2023-07-08T12:46:39;99470.28;;;31.34;51.40
76011;BME280;64701;43.536;1.478;2023-07-08T12:49:04;99471.94;;;31.47;52.14
76011;BME280;64701;43.536;1.478;2023-07-08T12:51:29;99471.09;;;31.55;51.31
76011;BME280;64701;43.536;1.478;2023-07-08T12:53:56;99470.53;;;31.70;51.82
76011;BME280;64701;43.536;1.478;2023-07-08T12:56:22;99473.22;;;31.79;50.15
76011;BME280;64701;43.536;1.478;2023-07-08T12:58:49;99473.09;;;31.75;49.45
76011;BME280;64701;43.536;1.478;2023-07-08T13:01:16;99471.63;;;31.78;49.88
76011;BME280;64701;43.536;1.478;2023-07-08T13:03:43;99463.88;;;31.80;48.64
76011;BME280;64701;43.536;1.478;2023-07-08T13:06:12;99475.44;;;31.85;49.15
76011;BME280;64701;43.536;1.478;2023-07-08T13:08:40;99467.03;;;31.90;48.35
76011;BME280;64701;43.536;1.478;2023-07-08T13:11:05;99463.75;;;31.97;49.45
76011;BME280;64701;43.536;1.478;2023-07-08T13:13:33;99463.63;;;31.93;48.05
76011;BME280;64701;43.536;1.478;2023-07-08T13:15:59;99463.88;;;32.00;47.86
76011;BME280;64701;43.536;1.478;2023-07-08T13:18:32;99465.63;;;32.05;47.19
76011;BME280;64701;43.536;1.478;2023-07-08T13:20:58;99472.22;;;32.04;46.19
76011;BME280;64701;43.536;1.478;2023-07-08T13:23:23;99474.25;;;32.16;47.62
76011;BME280;64701;43.536;1.478;2023-07-08T13:25:50;99470.72;;;32.15;46.07
76011;BME280;64701;43.536;1.478;2023-07-08T13:30:50;99468.78;;;32.16;46.29
76011;BME280;64701;43.536;1.478;2023-07-08T13:33:16;99475.78;;;32.05;46.69
76011;BME280;64701;43.536;1.478;2023-07-08T13:35:42;99467.78;;;31.99;46.79
76011;BME280;64701;43.536;1.478;2023-07-08T13:38:14;99466.53;;;32.09;46.38
76011;BME280;64701;43.536;1.478;2023-07-08T13:40:42;99478.06;;;32.23;46.55
76011;BME280;64701;43.536;1.478;2023-07-08T13:43:08;99477.25;;;32.23;45.44
76011;BME280;64701;43.536;1.478;2023-07-08T13:45:34;99473.03;;;32.25;45.02
76011;BME280;64701;43.536;1.478;2023-07-08T13:48:11;99472.97;;;32.34;46.79